createdAt,value
2018-04-29T00:00:28.634Z,13.35
2018-04-29T00:02:55.781Z,12.27
2018-04-29T00:05:22.593Z,13.30
2018-04-29T00:07:49.467Z,16.95
2018-04-29T00:10:16.354Z,11.18
2018-04-29T00:12:43.228Z,11.63
2018-04-29T00:15:10.301Z,11.50
2018-04-29T00:17:37.158Z,13.80
2018-04-29T00:20:04.067Z,12.27
2018-04-29T00:22:31.243Z,10.38
2018-04-29T00:24:58.082Z,10.32
2018-04-29T00:27:24.999Z,13.77
2018-04-29T00:29:51.922Z,16.27
2018-04-29T00:32:18.741Z,13.65
2018-04-29T00:34:45.595Z,15.75
2018-04-29T00:37:12.715Z,13.38
2018-04-29T00:39:39.574Z,13.30
2018-04-29T00:42:06.424Z,12.27
2018-04-29T00:44:33.271Z,23.80
2018-04-29T00:47:00.101Z,18.60
2018-04-29T00:49:26.947Z,20.12
2018-04-29T00:51:59.678Z,14.17
2018-04-29T00:54:26.862Z,10.10
2018-04-29T00:56:53.679Z,13.10
2018-04-29T00:59:20.554Z,10.68
2018-04-29T01:01:47.364Z,10.77
2018-04-29T01:04:14.218Z,13.15
2018-04-29T01:06:41.046Z,12.37
2018-04-29T01:09:07.926Z,17.25
2018-04-29T01:11:34.757Z,12.75
2018-04-29T01:14:01.631Z,14.70
2018-04-29T01:16:28.762Z,13.13
2018-04-29T01:18:55.602Z,13.60
2018-04-29T01:21:22.437Z,18.43
2018-04-29T01:23:49.257Z,20.70
2018-04-29T01:26:16.133Z,19.48
2018-04-29T01:28:42.956Z,17.87
2018-04-29T01:31:10.021Z,17.12
2018-04-29T01:33:36.894Z,16.60
2018-04-29T01:36:03.747Z,16.83
2018-04-29T01:38:30.605Z,16.37
2018-04-29T01:40:57.470Z,15.88
2018-04-29T01:43:24.330Z,17.23
2018-04-29T01:45:51.175Z,20.08
2018-04-29T01:48:18.333Z,18.47
2018-04-29T01:50:45.169Z,19.05
2018-04-29T01:53:12.014Z,22.52
2018-04-29T01:55:38.899Z,16.15
2018-04-29T01:58:05.743Z,19.17
2018-04-29T02:00:32.857Z,16.95
2018-04-29T02:02:59.696Z,17.77
2018-04-29T02:05:26.551Z,14.93
2018-04-29T02:07:53.395Z,15.73
2018-04-29T02:10:20.502Z,17.60
2018-04-29T02:12:47.316Z,16.95
2018-04-29T02:15:14.162Z,16.30
2018-04-29T02:17:41.269Z,17.70
2018-04-29T02:20:08.092Z,16.62
2018-04-29T02:22:34.951Z,20.65
2018-04-29T02:25:01.815Z,17.87
2018-04-29T02:27:28.666Z,17.17
2018-04-29T02:29:55.501Z,18.15
2018-04-29T02:32:22.638Z,17.17
2018-04-29T02:34:49.803Z,19.65
2018-04-29T02:37:16.941Z,18.42
2018-04-29T02:39:43.834Z,16.62
2018-04-29T02:42:10.939Z,16.73
2018-04-29T02:44:37.758Z,17.73
2018-04-29T02:47:04.605Z,25.42
2018-04-29T02:49:31.451Z,23.80
2018-04-29T02:51:58.619Z,19.90
2018-04-29T02:54:25.488Z,17.80
2018-04-29T02:56:52.611Z,23.45
2018-04-29T02:59:19.442Z,17.70
2018-04-29T03:01:46.257Z,18.23
2018-04-29T03:04:13.109Z,19.65
2018-04-29T03:06:40.197Z,21.37
2018-04-29T03:09:07.038Z,20.40
2018-04-29T03:11:33.895Z,20.73
2018-04-29T03:14:01.027Z,20.23
2018-04-29T03:16:28.172Z,20.20
2018-04-29T03:18:54.993Z,25.62
2018-04-29T03:21:22.061Z,23.92
2018-04-29T03:23:49.218Z,19.80
2018-04-29T03:26:16.368Z,20.80
2018-04-29T03:28:43.239Z,24.73
2018-04-29T03:31:10.074Z,21.47
2018-04-29T03:33:36.927Z,22.23
2018-04-29T03:36:03.765Z,27.08
2018-04-29T03:38:30.890Z,22.85
2018-04-29T03:40:57.765Z,23.87
2018-04-29T03:43:24.877Z,25.67
2018-04-29T03:45:51.745Z,24.15
2018-04-29T03:48:18.577Z,27.77
2018-04-29T03:50:45.427Z,25.10
2018-04-29T03:53:12.285Z,26.62
2018-04-29T03:55:39.139Z,22.48
2018-04-29T03:58:12.289Z,21.80
2018-04-29T04:00:48.246Z,23.12
2018-04-29T04:03:20.869Z,26.87
2018-04-29T04:05:47.985Z,26.23
2018-04-29T04:08:14.827Z,26.02
2018-04-29T04:10:41.971Z,19.52
2018-04-29T04:13:08.786Z,21.13
2018-04-29T04:15:35.963Z,28.80
2018-04-29T04:18:02.847Z,23.08
2018-04-29T04:20:29.692Z,23.85
2018-04-29T04:22:56.798Z,28.05
2018-04-29T04:25:23.655Z,27.58
2018-04-29T04:27:50.497Z,25.35
2018-04-29T04:30:17.319Z,28.10
2018-04-29T04:32:44.152Z,24.92
2018-04-29T04:35:11.025Z,30.80
2018-04-29T04:37:37.869Z,29.17
2018-04-29T04:40:05.017Z,27.25
2018-04-29T04:42:31.842Z,28.10
2018-04-29T04:44:58.649Z,27.52
2018-04-29T04:47:25.524Z,24.85
2018-04-29T04:49:52.349Z,23.70
2018-04-29T04:52:19.222Z,21.48
2018-04-29T04:54:46.050Z,25.40
2018-04-29T04:57:13.155Z,26.80
2018-04-29T04:59:40.261Z,22.73
2018-04-29T05:02:07.088Z,24.50
2018-04-29T05:04:34.257Z,20.37
2018-04-29T05:07:01.072Z,20.60
2018-04-29T05:09:27.935Z,24.90
2018-04-29T05:11:54.745Z,27.55
2018-04-29T05:14:21.835Z,22.90
2018-04-29T05:16:48.690Z,25.20
2018-04-29T05:19:15.831Z,23.92
2018-04-29T05:21:42.983Z,26.45
2018-04-29T05:24:09.843Z,27.60
2018-04-29T05:26:36.911Z,27.62
2018-04-29T05:29:03.733Z,24.85
2018-04-29T05:31:30.862Z,26.80
2018-04-29T05:33:57.742Z,26.10
2018-04-29T05:36:24.617Z,28.38
2018-04-29T05:38:51.483Z,27.70
2018-04-29T05:41:18.339Z,27.52
2018-04-29T05:43:45.428Z,25.80
2018-04-29T05:46:12.317Z,33.58
2018-04-29T05:48:39.153Z,32.50
2018-04-29T05:51:06.325Z,24.75
2018-04-29T05:53:33.477Z,29.60
2018-04-29T05:56:00.335Z,23.55
2018-04-29T05:58:27.224Z,25.85
2018-04-29T06:00:54.151Z,25.88
2018-04-29T06:03:21.000Z,24.25
2018-04-29T06:05:47.923Z,26.30
2018-04-29T06:08:14.790Z,25.67
2018-04-29T06:10:41.617Z,23.75
2018-04-29T06:13:08.446Z,23.35
2018-04-29T06:15:35.290Z,24.03
2018-04-29T06:18:02.143Z,22.35
2018-04-29T06:20:29.060Z,24.02
2018-04-29T06:22:55.932Z,20.73
2018-04-29T06:25:23.163Z,23.85
2018-04-29T06:27:49.982Z,23.48
2018-04-29T06:30:16.863Z,25.73
2018-04-29T06:32:43.711Z,24.50
2018-04-29T06:35:10.607Z,23.58
2018-04-29T06:37:37.427Z,19.80
2018-04-29T06:40:04.535Z,18.90
2018-04-29T06:42:31.391Z,20.92
2018-04-29T06:44:58.230Z,19.15
2018-04-29T06:47:25.372Z,19.95
2018-04-29T06:49:52.235Z,20.95
2018-04-29T06:52:19.057Z,21.63
2018-04-29T06:54:46.193Z,22.45
2018-04-29T06:57:13.062Z,26.37
2018-04-29T06:59:39.909Z,22.30
2018-04-29T07:02:06.766Z,17.45
2018-04-29T07:04:33.883Z,17.80
2018-04-29T07:07:00.718Z,16.97
2018-04-29T07:09:27.563Z,16.40
2018-04-29T07:11:54.439Z,15.15
2018-04-29T07:14:21.557Z,17.23
2018-04-29T07:16:48.715Z,16.17
2018-04-29T07:19:15.579Z,13.10
2018-04-29T07:21:42.426Z,14.13
2018-04-29T07:24:09.257Z,16.92
2018-04-29T07:26:36.090Z,15.40
2018-04-29T07:29:02.967Z,14.32
2018-04-29T07:31:29.832Z,13.70
2018-04-29T07:33:56.918Z,13.60
2018-04-29T07:36:23.774Z,15.85
2018-04-29T07:38:50.622Z,13.75
2018-04-29T07:41:17.466Z,12.63
2018-04-29T07:43:44.323Z,14.10
2018-04-29T07:46:11.209Z,11.10
2018-04-29T07:48:38.249Z,14.80
2018-04-29T07:51:05.338Z,15.13
2018-04-29T07:53:32.161Z,13.93
2018-04-29T07:55:59.003Z,15.50
2018-04-29T07:58:25.849Z,13.38
2018-04-29T08:00:52.706Z,14.40
2018-04-29T08:03:19.861Z,13.30
2018-04-29T08:05:46.730Z,15.13
2018-04-29T08:08:13.849Z,18.10
2018-04-29T08:10:41.003Z,16.45
2018-04-29T08:13:08.058Z,16.83
2018-04-29T08:15:34.969Z,21.83
2018-04-29T08:18:01.827Z,17.45
2018-04-29T08:20:28.694Z,17.50
2018-04-29T08:22:55.547Z,17.98
2018-04-29T08:25:22.616Z,17.10
2018-04-29T08:27:49.487Z,20.95
2018-04-29T08:30:16.310Z,18.65
2018-04-29T08:32:43.139Z,20.80
2018-04-29T08:35:10.250Z,20.23
2018-04-29T08:37:37.107Z,20.67
2018-04-29T08:40:04.150Z,24.20
2018-04-29T08:42:30.966Z,28.60
2018-04-29T08:44:58.059Z,22.27
2018-04-29T08:47:24.886Z,23.73
2018-04-29T08:49:51.767Z,24.40
2018-04-29T08:52:18.615Z,28.40
2018-04-29T08:54:45.829Z,25.60
2018-04-29T08:57:12.965Z,22.73
2018-04-29T08:59:40.132Z,18.55
2018-04-29T09:02:06.999Z,17.23
2018-04-29T09:04:33.871Z,19.80
2018-04-29T09:07:00.703Z,20.17
2018-04-29T09:09:27.545Z,16.70
2018-04-29T09:11:54.633Z,17.80
2018-04-29T09:14:21.795Z,14.63
2018-04-29T09:16:48.676Z,19.55
2018-04-29T09:19:15.596Z,15.10
2018-04-29T09:21:42.459Z,14.80
2018-04-29T09:24:09.574Z,18.77
2018-04-29T09:26:36.505Z,24.00
2018-04-29T09:29:03.404Z,20.33
2018-04-29T09:34:14.769Z,16.75
2018-04-29T09:36:41.763Z,14.77
2018-04-29T09:39:08.656Z,13.40
2018-04-29T09:41:35.774Z,14.20
2018-04-29T09:44:02.703Z,14.87
2018-04-29T09:46:29.960Z,13.35
2018-04-29T09:48:57.176Z,13.35
2018-04-29T09:54:10.188Z,15.05
2018-04-29T09:56:37.502Z,13.40
2018-04-29T10:03:59.573Z,12.50
2018-04-29T10:06:26.703Z,10.15
2018-04-29T10:08:53.752Z,13.13
2018-04-29T10:11:21.422Z,12.55
2018-04-29T10:13:48.484Z,9.93
2018-04-29T10:16:15.356Z,10.73
2018-04-29T10:18:42.297Z,16.62
2018-04-29T10:21:09.149Z,12.68
2018-04-29T10:23:36.019Z,10.02
2018-04-29T10:26:03.151Z,10.98
2018-04-29T10:28:29.992Z,7.30
2018-04-29T10:30:57.346Z,9.65
2018-04-29T10:33:24.645Z,10.50
2018-04-29T10:35:52.590Z,10.60
2018-04-29T10:38:19.879Z,9.80
2018-04-29T10:40:47.350Z,9.00
2018-04-29T10:43:15.094Z,9.40
2018-04-29T10:45:42.680Z,7.97
2018-04-29T10:48:09.970Z,9.02
2018-04-29T10:50:37.900Z,9.38
2018-04-29T10:53:05.150Z,10.18
2018-04-29T10:55:33.102Z,9.07
2018-04-29T10:58:00.568Z,8.67
2018-04-29T11:00:27.931Z,9.80
2018-04-29T11:02:55.224Z,13.47
2018-04-29T11:05:23.706Z,9.13
2018-04-29T11:07:51.042Z,8.05
2018-04-29T11:10:18.629Z,7.65
2018-04-29T11:12:48.965Z,8.98
2018-04-29T11:15:16.558Z,9.40
2018-04-29T11:17:43.650Z,9.45
2018-04-29T11:20:10.471Z,17.00
2018-04-29T11:22:37.642Z,9.07
2018-04-29T11:25:04.689Z,9.95
2018-04-29T11:27:31.555Z,10.60
2018-04-29T11:29:58.369Z,9.07
2018-04-29T11:32:25.194Z,11.63
2018-04-29T11:34:52.016Z,9.80
2018-04-29T11:37:18.837Z,6.97
2018-04-29T11:39:45.732Z,8.98
2018-04-29T11:42:12.919Z,9.45
2018-04-29T11:44:39.780Z,13.73
2018-04-29T11:47:06.643Z,9.23
2018-04-29T11:49:33.626Z,8.30
2018-04-29T11:52:01.090Z,12.47
2018-04-29T11:54:28.405Z,8.80
2018-04-29T11:56:56.116Z,12.30
2018-04-29T11:59:23.607Z,11.43
2018-04-29T12:01:51.631Z,9.68
2018-04-29T12:04:18.836Z,12.68
2018-04-29T12:06:46.166Z,9.55
2018-04-29T12:09:13.684Z,7.70
2018-04-29T12:11:41.090Z,6.45
2018-04-29T12:14:09.290Z,9.80
2018-04-29T12:16:36.561Z,8.00
2018-04-29T12:19:04.762Z,10.23
2018-04-29T12:21:32.365Z,7.47
2018-04-29T12:24:01.166Z,7.10
2018-04-29T12:26:28.984Z,5.80
2018-04-29T12:28:55.794Z,4.75
2018-04-29T12:31:22.646Z,6.53
2018-04-29T12:33:49.714Z,9.40
2018-04-29T12:36:16.541Z,6.60
2018-04-29T12:38:43.384Z,6.20
2018-04-29T12:41:10.250Z,7.97
2018-04-29T12:43:37.065Z,7.37
2018-04-29T12:46:03.928Z,7.20
2018-04-29T12:48:30.792Z,7.97
2018-04-29T12:50:57.626Z,7.05
2018-04-29T12:53:24.491Z,6.00
2018-04-29T12:55:51.337Z,8.98
2018-04-29T12:58:18.187Z,6.30
2018-04-29T13:00:45.043Z,6.87
2018-04-29T13:03:12.147Z,8.20
2018-04-29T13:05:38.996Z,9.40
2018-04-29T13:08:05.926Z,6.28
2018-04-29T13:10:32.753Z,8.13
2018-04-29T13:12:59.582Z,7.15
2018-04-29T13:15:26.430Z,9.80
2018-04-29T13:17:53.615Z,9.40
2018-04-29T13:20:20.754Z,5.00
2018-04-29T13:22:47.851Z,6.15
2018-04-29T13:25:14.665Z,5.85
2018-04-29T13:27:41.808Z,6.47
2018-04-29T13:30:08.616Z,5.97
2018-04-29T13:32:36.021Z,6.75
2018-04-29T13:35:03.739Z,5.97
2018-04-29T13:37:30.553Z,6.82
2018-04-29T13:39:57.367Z,7.87
2018-04-29T13:42:24.273Z,5.22
2018-04-29T13:44:51.042Z,7.33
2018-04-29T13:47:18.152Z,5.68
2018-04-29T13:49:44.991Z,5.27
2018-04-29T13:52:11.956Z,7.35
2018-04-29T13:54:38.770Z,5.80
2018-04-29T13:57:05.645Z,4.47
2018-04-29T13:59:32.744Z,4.97
2018-04-29T14:01:59.574Z,10.35
2018-04-29T14:04:26.396Z,8.98
2018-04-29T14:06:53.225Z,9.83
2018-04-29T14:09:20.030Z,7.10
2018-04-29T14:11:46.861Z,5.68
2018-04-29T14:14:13.973Z,5.50
2018-04-29T14:16:41.025Z,4.80
2018-04-29T14:19:07.837Z,5.65
2018-04-29T14:21:35.060Z,5.45
2018-04-29T14:24:01.874Z,4.87
2018-04-29T14:26:28.714Z,4.68
2018-04-29T14:28:55.536Z,5.13
2018-04-29T14:31:22.448Z,6.15
2018-04-29T14:33:49.272Z,5.65
2018-04-29T14:36:16.130Z,6.62
2018-04-29T14:38:42.950Z,7.60
2018-04-29T14:41:09.799Z,8.27
2018-04-29T14:43:36.659Z,7.45
2018-04-29T14:46:03.465Z,8.73
2018-04-29T14:48:30.323Z,4.87
2018-04-29T14:50:57.178Z,5.80
2018-04-29T14:53:24.043Z,6.60
2018-04-29T14:55:50.899Z,8.93
2018-04-29T14:58:18.045Z,6.40
2018-04-29T15:00:45.109Z,7.87
2018-04-29T15:03:12.171Z,5.83
2018-04-29T15:05:39.001Z,6.82
2018-04-29T15:08:05.845Z,5.77
2018-04-29T15:10:32.719Z,6.53
2018-04-29T15:12:59.737Z,5.18
2018-04-29T15:15:26.524Z,5.53
2018-04-29T15:17:53.361Z,4.50
2018-04-29T15:20:20.229Z,6.15
2018-04-29T15:22:49.436Z,5.90
2018-04-29T15:25:17.563Z,6.72
2018-04-29T15:27:45.516Z,5.05
2018-04-29T15:30:13.173Z,6.50
2018-04-29T15:32:41.741Z,7.25
2018-04-29T15:35:10.750Z,4.67
2018-04-29T15:37:40.190Z,6.32
2018-04-29T15:40:08.955Z,5.30
2018-04-29T15:42:36.604Z,7.90
2018-04-29T15:45:05.204Z,6.03
2018-04-29T15:47:32.769Z,6.22
2018-04-29T15:50:00.439Z,7.05
2018-04-29T15:52:28.004Z,7.87
2018-04-29T15:54:56.233Z,8.67
2018-04-29T15:57:24.200Z,10.55
2018-04-29T15:59:52.265Z,6.00
2018-04-29T16:02:19.844Z,6.22
2018-04-29T16:04:47.124Z,7.65
2018-04-29T16:07:15.024Z,8.95
2018-04-29T16:09:43.075Z,6.37
2018-04-29T16:12:10.274Z,4.90
2018-04-29T16:14:38.767Z,5.47
2018-04-29T16:17:06.833Z,4.37
2018-04-29T16:19:35.417Z,5.82
2018-04-29T16:22:03.583Z,6.80
2018-04-29T16:24:32.001Z,6.82
2018-04-29T16:27:01.050Z,5.03
2018-04-29T16:29:27.928Z,5.10
2018-04-29T16:31:54.939Z,6.47
2018-04-29T16:34:21.773Z,6.22
2018-04-29T16:36:48.860Z,4.97
2018-04-29T16:39:15.641Z,6.40
2018-04-29T16:41:42.511Z,4.70
2018-04-29T16:44:09.591Z,7.70
2018-04-29T16:46:36.405Z,7.25
2018-04-29T16:49:03.301Z,6.05
2018-04-29T16:51:30.161Z,7.25
2018-04-29T16:53:57.004Z,7.57
2018-04-29T16:56:24.081Z,9.13
2018-04-29T16:58:50.905Z,5.60
2018-04-29T17:01:17.730Z,7.83
2018-04-29T17:03:44.791Z,8.60
2018-04-29T17:06:11.636Z,6.93
2018-04-29T17:08:38.495Z,12.43
2018-04-29T17:11:05.571Z,8.35
2018-04-29T17:13:32.412Z,6.03
2018-04-29T17:15:59.238Z,5.60
2018-04-29T17:18:26.082Z,7.72
2018-04-29T17:20:52.931Z,6.93
2018-04-29T17:23:20.019Z,5.35
2018-04-29T17:25:46.885Z,8.32
2018-04-29T17:28:13.690Z,6.93
2018-04-29T17:30:40.533Z,15.27
2018-04-29T17:33:07.391Z,7.65
2018-04-29T17:35:34.230Z,8.57
2018-04-29T17:38:01.081Z,6.37
2018-04-29T17:40:28.186Z,9.23
2018-04-29T17:42:55.044Z,7.37
2018-04-29T17:45:21.881Z,8.32
2018-04-29T17:47:48.727Z,11.07
2018-04-29T17:50:15.558Z,8.73
2018-04-29T17:52:42.656Z,9.80
2018-04-29T17:55:09.486Z,10.30
2018-04-29T17:57:36.298Z,10.27
2018-04-29T18:00:03.130Z,8.70
2018-04-29T18:02:29.960Z,11.67
2018-04-29T18:04:57.078Z,12.43
2018-04-29T18:07:24.227Z,11.52
2018-04-29T18:09:51.086Z,22.75
2018-04-29T18:12:17.909Z,19.48
2018-04-29T18:14:44.835Z,12.63
2018-04-29T18:17:11.683Z,18.17
2018-04-29T18:19:38.517Z,13.35
2018-04-29T18:22:05.364Z,16.23
2018-04-29T18:24:32.222Z,14.23
2018-04-29T18:26:59.338Z,15.45
2018-04-29T18:29:26.161Z,11.75
2018-04-29T18:31:52.989Z,13.60
2018-04-29T18:34:19.838Z,13.50
2018-04-29T18:36:46.997Z,14.60
2018-04-29T18:39:13.788Z,19.85
2018-04-29T18:41:40.605Z,16.10
2018-04-29T18:44:07.433Z,12.90
2018-04-29T18:46:34.639Z,16.33
2018-04-29T18:49:01.489Z,14.25
2018-04-29T18:51:28.455Z,19.55
2018-04-29T18:53:55.209Z,15.68
2018-04-29T18:56:22.068Z,14.00
2018-04-29T18:58:48.902Z,15.13
2018-04-29T19:01:16.047Z,13.32
2018-04-29T19:03:42.893Z,15.57
2018-04-29T19:06:09.981Z,10.40
2018-04-29T19:08:36.810Z,10.27
2018-04-29T19:11:03.996Z,13.80
2018-04-29T19:13:30.810Z,12.55
2018-04-29T19:15:57.655Z,12.88
2018-04-29T19:18:24.482Z,10.80
2018-04-29T19:20:51.309Z,8.80
2018-04-29T19:23:18.410Z,11.93
2018-04-29T19:25:45.227Z,11.23
2018-04-29T19:28:12.131Z,9.27
2018-04-29T19:30:38.969Z,9.38
2018-04-29T19:33:05.824Z,11.07
2018-04-29T19:35:32.650Z,9.25
2018-04-29T19:37:59.500Z,10.13
2018-04-29T19:40:26.325Z,8.77
2018-04-29T19:42:53.184Z,7.23
2018-04-29T19:45:20.059Z,7.90
2018-04-29T19:47:46.878Z,10.18
2018-04-29T19:50:13.701Z,8.68
2018-04-29T19:52:40.567Z,10.50
2018-04-29T19:55:07.430Z,8.80
2018-04-29T19:57:34.308Z,9.82
2018-04-29T20:00:01.141Z,9.65
2018-04-29T20:02:27.980Z,10.40
2018-04-29T20:04:55.159Z,11.15
2018-04-29T20:07:22.308Z,11.50
2018-04-29T20:09:49.135Z,8.43
2018-04-29T20:12:15.955Z,13.43
2018-04-29T20:14:42.831Z,12.35
2018-04-29T20:17:09.882Z,10.35
2018-04-29T20:19:36.721Z,11.43
2018-04-29T20:22:03.543Z,16.43
2018-04-29T20:24:30.350Z,10.88
2018-04-29T20:26:57.186Z,11.63
2018-04-29T20:29:24.001Z,13.50
2018-04-29T20:31:50.831Z,12.50
2018-04-29T20:34:17.683Z,16.30
2018-04-29T20:36:44.559Z,13.43
2018-04-29T20:39:11.381Z,11.25
2018-04-29T20:41:38.221Z,13.40
2018-04-29T20:44:05.050Z,10.93
2018-04-29T20:46:31.893Z,9.80
2018-04-29T20:48:58.748Z,14.80
2018-04-29T20:51:25.600Z,13.20
2018-04-29T20:55:05.651Z,14.75
2018-04-29T20:57:32.913Z,23.50
2018-04-29T20:59:59.751Z,11.80
2018-04-29T21:02:26.606Z,11.70
2018-04-29T21:04:53.493Z,11.57
2018-04-29T21:07:20.396Z,10.02
2018-04-29T21:09:47.223Z,13.07
2018-04-29T21:12:14.269Z,9.10
2018-04-29T21:14:41.118Z,15.90
2018-04-29T21:17:08.029Z,12.93
2018-04-29T21:19:34.812Z,9.65
2018-04-29T21:22:01.668Z,10.88
2018-04-29T21:24:28.786Z,12.25
2018-04-29T21:26:55.612Z,8.32
2018-04-29T21:29:22.426Z,7.87
2018-04-29T21:31:49.257Z,9.43
2018-04-29T21:34:16.102Z,7.40
2018-04-29T21:36:43.215Z,16.70
2018-04-29T21:39:10.034Z,9.37
2018-04-29T21:41:36.876Z,16.33
2018-04-29T21:44:03.713Z,10.23
2018-04-29T21:46:30.567Z,9.27
2018-04-29T21:48:57.377Z,9.25
2018-04-29T21:51:24.508Z,9.43
2018-04-29T21:53:51.367Z,10.85
2018-04-29T21:56:18.243Z,11.20
2018-04-29T21:58:45.075Z,11.77
2018-04-29T22:01:11.942Z,12.48
2018-04-29T22:03:38.766Z,8.43
2018-04-29T22:06:05.838Z,9.05
2018-04-29T22:08:32.686Z,8.10
2018-04-29T22:10:59.504Z,8.95
2018-04-29T22:13:26.684Z,7.53
2018-04-29T22:15:53.825Z,11.65
2018-04-29T22:18:20.632Z,7.75
2018-04-29T22:20:47.457Z,10.27
2018-04-29T22:23:14.567Z,9.05
2018-04-29T22:25:41.418Z,9.93
2018-04-29T22:28:08.255Z,7.47
2018-04-29T22:30:35.397Z,9.55
2018-04-29T22:33:02.247Z,8.25
2018-04-29T22:35:29.289Z,9.30
2018-04-29T22:37:56.438Z,8.88
2018-04-29T22:40:23.480Z,8.30
2018-04-29T22:42:50.534Z,7.93
2018-04-29T22:45:17.356Z,9.68
2018-04-29T22:47:44.425Z,8.57
2018-04-29T22:50:11.579Z,9.95
2018-04-29T22:52:38.427Z,9.30
2018-04-29T22:55:05.570Z,10.75
2018-04-29T22:57:32.723Z,8.60
2018-04-29T22:59:59.534Z,9.45
2018-04-29T23:02:26.721Z,11.40
2018-04-29T23:04:53.564Z,8.63
2018-04-29T23:07:20.707Z,9.95
2018-04-29T23:09:47.533Z,9.10
2018-04-29T23:12:14.334Z,7.50
2018-04-29T23:14:41.195Z,10.10
2018-04-29T23:17:08.048Z,8.85
2018-04-29T23:19:34.866Z,9.45
2018-04-29T23:22:01.733Z,7.40
2018-04-29T23:24:28.627Z,12.67
2018-04-29T23:26:55.483Z,7.90
2018-04-29T23:29:22.314Z,10.43
2018-04-29T23:31:49.149Z,9.23
2018-04-29T23:34:16.296Z,10.88
2018-04-29T23:36:43.111Z,11.07
2018-04-29T23:39:09.962Z,11.43
2018-04-29T23:41:37.026Z,10.23
2018-04-29T23:44:04.183Z,11.23
2018-04-29T23:46:31.023Z,14.20
2018-04-29T23:48:57.845Z,10.13
2018-04-29T23:51:24.683Z,10.80
2018-04-29T23:53:51.495Z,13.35
2018-04-29T23:56:18.356Z,14.87
2018-04-29T23:58:45.177Z,12.30
